Patroon, Texas
Current Conditions -  °F | °C
As of 2:35 AM on Thursday 18 Dec 2014 (Local Time) from KOCH Reporting Station
Overcast Overcast  
Wind Chill: 48°   Ceiling: 1800
Heat Index: 48°   Visibility: 10mi
Dew Point: 45°   Wind: 0mph
Humidity: 87%   Direction: NA
Pressure: 30.13"   Gusts: NA
Location:  31.7022°N, 93.9592°W
Report Text: KOCH 180835Z AUTO 00000KT 10SM OVC018 09/07 A3013 RMK AO1
Loading
Personal Weather Stations






























Interactive Weather Map New forecast layout! Learn more

10-Day Weather Forecast

Advertisements
Track Severe Weather on mobile